Terminal Aerodrome Forecast
Issued by NWS

Home | Current Version | Previous Version | Text Only | Print | Product List | Glossary On
Versions: 1 2 3 4 5 6 7 8 9 10 11 12 13 14 15 16 17 18 19 20 21 22 23
611
FTUS43 KAPX 161720
TAFPLN
TAF
KPLN 161720Z 1618/1718 05009KT P6SM BKN015 OVC035
     FM162100 05006KT P6SM BKN035
     FM170000 VRB03KT P6SM BKN100
     FM171400 12005KT P6SM BKN035=

USA.gov is the U.S. government's official web portal to all federal, state and local government web resources and services.